createdAt,value
2019-06-26T00:01:29.889Z,23.24
2019-06-26T00:05:31.523Z,23.20
2019-06-26T00:09:35.519Z,23.15
2019-06-26T00:13:36.416Z,23.17
2019-06-26T00:17:37.342Z,23.14
2019-06-26T00:21:38.277Z,23.11
2019-06-26T00:25:39.217Z,23.05
2019-06-26T00:29:40.122Z,23.09
2019-06-26T00:33:41.052Z,23.07
2019-06-26T00:37:42.085Z,23.05
2019-06-26T00:41:43.016Z,23.13
2019-06-26T00:45:43.954Z,23.12
2019-06-26T00:49:44.854Z,23.14
2019-06-26T00:53:45.795Z,23.08
2019-06-26T00:57:46.742Z,23.06
2019-06-26T01:01:49.670Z,23.00
2019-06-26T01:05:50.709Z,22.90
2019-06-26T01:09:51.602Z,22.85
2019-06-26T01:13:58.161Z,22.84
2019-06-26T01:17:55.385Z,22.82
2019-06-26T01:21:56.423Z,22.77
2019-06-26T01:25:57.334Z,22.72
2019-06-26T01:30:03.198Z,22.73
2019-06-26T01:34:04.443Z,22.73
2019-06-26T01:38:05.372Z,22.74
2019-06-26T01:42:06.347Z,22.71
2019-06-26T01:46:07.447Z,22.70
2019-06-26T01:50:09.150Z,22.81
2019-06-26T01:54:10.090Z,22.85
2019-06-26T01:58:11.030Z,22.92
2019-06-26T02:02:12.000Z,22.96
2019-06-26T02:06:12.898Z,22.99
2019-06-26T02:10:14.539Z,23.00
2019-06-26T02:14:29.947Z,23.01
2019-06-26T02:18:35.038Z,23.03
2019-06-26T02:22:36.036Z,23.01
2019-06-26T02:26:36.929Z,22.99
2019-06-26T02:30:37.868Z,22.99
2019-06-26T02:34:38.815Z,22.97
2019-06-26T02:38:39.805Z,22.99
2019-06-26T02:42:42.643Z,22.98
2019-06-26T02:46:43.550Z,22.96
2019-06-26T02:50:44.471Z,23.01
2019-06-26T02:54:45.423Z,22.97
2019-06-26T02:58:46.364Z,22.93
2019-06-26T03:02:47.340Z,22.92
2019-06-26T03:06:48.292Z,22.91
2019-06-26T03:10:49.269Z,22.87
2019-06-26T03:14:50.206Z,22.86
2019-06-26T03:18:51.191Z,22.89
2019-06-26T03:22:52.091Z,22.89
2019-06-26T03:26:53.028Z,22.93
2019-06-26T03:30:53.965Z,22.75
2019-06-26T03:34:54.901Z,22.73
2019-06-26T03:38:55.845Z,22.75
2019-06-26T03:42:56.801Z,22.75
2019-06-26T03:46:57.752Z,22.72
2019-06-26T03:51:00.594Z,22.77
2019-06-26T03:55:03.772Z,22.84
2019-06-26T03:59:04.712Z,22.86
2019-06-26T04:03:05.643Z,22.88
2019-06-26T04:07:06.577Z,22.96
2019-06-26T04:11:09.621Z,23.03
2019-06-26T04:15:10.750Z,23.10
2019-06-26T04:19:11.699Z,23.12
2019-06-26T04:23:12.590Z,23.16
2019-06-26T04:27:13.521Z,23.17
2019-06-26T04:31:14.555Z,23.21
2019-06-26T04:35:17.597Z,23.27
2019-06-26T04:39:20.580Z,23.32
2019-06-26T04:43:21.316Z,23.41
2019-06-26T04:47:24.254Z,23.54
2019-06-26T04:51:25.203Z,23.63
2019-06-26T04:55:27.682Z,23.76
2019-06-26T04:59:30.643Z,23.92
2019-06-26T05:03:31.449Z,24.04
2019-06-26T05:07:32.387Z,24.26
2019-06-26T05:11:33.414Z,24.51
2019-06-26T05:15:36.271Z,24.71
2019-06-26T05:19:37.164Z,25.04
2019-06-26T05:23:38.107Z,25.34
2019-06-26T05:27:39.362Z,25.73
2019-06-26T05:31:40.285Z,25.99
2019-06-26T05:35:41.219Z,26.19
2019-06-26T05:39:42.117Z,26.41
2019-06-26T05:43:46.139Z,26.59
2019-06-26T05:47:47.234Z,26.70
2019-06-26T05:51:48.148Z,26.81
2019-06-26T05:55:54.062Z,27.11
2019-06-26T05:59:54.952Z,27.41
2019-06-26T06:03:57.269Z,27.54
2019-06-26T06:07:58.218Z,27.75
2019-06-26T06:11:59.145Z,28.03
2019-06-26T06:16:00.090Z,28.21
2019-06-26T06:20:01.233Z,28.10
2019-06-26T06:24:03.819Z,28.34
2019-06-26T06:28:04.745Z,28.37
2019-06-26T06:32:05.674Z,28.51
2019-06-26T06:36:09.646Z,28.65
2019-06-26T06:40:11.454Z,28.93
2019-06-26T06:44:13.150Z,28.98
2019-06-26T06:48:14.936Z,28.94
2019-06-26T06:52:17.484Z,28.98
2019-06-26T06:56:18.413Z,29.16
2019-06-26T07:00:19.645Z,29.57
2019-06-26T07:04:20.674Z,29.65
2019-06-26T07:08:21.602Z,29.90
2019-06-26T07:12:22.846Z,29.93
2019-06-26T07:16:23.798Z,30.43
2019-06-26T07:20:27.574Z,30.43
2019-06-26T07:24:28.528Z,30.64
2019-06-26T07:28:32.561Z,30.66
2019-06-26T07:32:33.501Z,30.88
2019-06-26T07:36:34.636Z,31.03
2019-06-26T07:40:35.527Z,31.19
2019-06-26T07:44:36.463Z,31.35
2019-06-26T07:48:39.321Z,31.58
2019-06-26T07:52:40.353Z,31.85
2019-06-26T07:56:41.288Z,31.77
2019-06-26T08:00:42.229Z,31.65
2019-06-26T08:04:43.150Z,31.93
2019-06-26T08:08:45.447Z,32.40
2019-06-26T08:12:46.415Z,32.53
2019-06-26T08:16:47.349Z,32.68
2019-06-26T08:21:00.749Z,32.68
2019-06-26T08:24:51.084Z,32.40
2019-06-26T08:28:52.013Z,31.94
2019-06-26T08:32:52.935Z,32.16
2019-06-26T08:36:53.870Z,32.55
2019-06-26T08:40:54.861Z,32.76
2019-06-26T08:44:55.787Z,32.91
2019-06-26T08:48:56.814Z,33.01
2019-06-26T08:52:57.750Z,33.05
2019-06-26T08:56:58.691Z,33.19
2019-06-26T09:01:01.562Z,33.29
2019-06-26T09:05:04.615Z,33.19
2019-06-26T09:09:06.397Z,33.22
2019-06-26T09:13:07.326Z,33.16
2019-06-26T09:17:10.211Z,33.27
2019-06-26T09:21:11.143Z,33.35
2019-06-26T09:25:21.739Z,33.32
2019-06-26T09:29:15.079Z,33.56
2019-06-26T09:33:16.015Z,33.70
2019-06-26T09:37:18.894Z,33.67
2019-06-26T09:41:19.877Z,33.93
2019-06-26T09:45:20.818Z,34.00
2019-06-26T09:49:21.722Z,33.90
2019-06-26T09:53:22.663Z,33.84
2019-06-26T09:57:26.588Z,33.64
2019-06-26T10:01:27.515Z,34.08
2019-06-26T10:05:28.448Z,34.17
2019-06-26T10:09:29.441Z,34.02
2019-06-26T10:13:30.337Z,33.83
2019-06-26T10:17:32.525Z,33.95
2019-06-26T10:21:33.641Z,33.73
2019-06-26T10:25:36.148Z,33.75
2019-06-26T10:29:37.072Z,33.88
2019-06-26T10:33:38.078Z,33.89
2019-06-26T10:37:39.709Z,33.93
2019-06-26T10:41:40.836Z,34.24
2019-06-26T10:45:41.781Z,34.22
2019-06-26T10:49:42.740Z,34.45
2019-06-26T10:53:43.678Z,34.49
2019-06-26T10:57:44.631Z,34.37
2019-06-26T11:01:45.578Z,34.26
2019-06-26T11:05:46.483Z,34.19
2019-06-26T11:09:47.420Z,34.32
2019-06-26T11:13:48.339Z,34.35
2019-06-26T11:17:49.271Z,34.32
2019-06-26T11:21:50.208Z,34.63
2019-06-26T11:25:51.139Z,34.71
2019-06-26T11:29:52.070Z,34.84
2019-06-26T11:33:53.083Z,34.64
2019-06-26T11:37:54.022Z,34.69
2019-06-26T11:41:54.947Z,34.72
2019-06-26T11:45:56.004Z,34.78
2019-06-26T11:50:00.097Z,34.75
2019-06-26T11:53:59.750Z,35.00
2019-06-26T11:58:00.784Z,35.27
2019-06-26T12:02:01.714Z,35.41
2019-06-26T12:06:17.745Z,35.27
2019-06-26T12:10:07.951Z,35.06
2019-06-26T12:14:09.001Z,35.30
2019-06-26T12:18:09.950Z,35.49
2019-06-26T12:22:10.910Z,35.38
2019-06-26T12:26:11.846Z,35.56
2019-06-26T12:30:13.266Z,35.35
2019-06-26T12:34:14.205Z,35.60
2019-06-26T12:38:15.132Z,35.69
2019-06-26T12:42:16.082Z,35.57
2019-06-26T12:46:18.276Z,35.55
2019-06-26T12:50:34.767Z,35.35
2019-06-26T12:54:27.311Z,35.54
2019-06-26T12:58:29.108Z,35.60
2019-06-26T13:02:30.181Z,35.58
2019-06-26T13:06:31.120Z,35.77
2019-06-26T13:10:39.258Z,35.84
2019-06-26T13:14:34.863Z,35.81
2019-06-26T13:18:36.110Z,35.78
2019-06-26T13:22:37.131Z,35.47
2019-06-26T13:26:38.076Z,35.24
2019-06-26T13:30:39.710Z,35.36
2019-06-26T13:34:40.614Z,35.35
2019-06-26T13:38:41.545Z,35.49
2019-06-26T13:42:42.479Z,35.40
2019-06-26T13:46:43.478Z,35.23
2019-06-26T13:50:44.469Z,35.61
2019-06-26T13:54:45.354Z,35.83
2019-06-26T13:58:46.304Z,35.85
2019-06-26T14:02:47.206Z,35.70
2019-06-26T14:06:48.163Z,35.66
2019-06-26T14:10:49.090Z,35.55
2019-06-26T14:14:57.396Z,35.52
2019-06-26T14:18:53.127Z,35.30
2019-06-26T14:22:54.068Z,35.11
2019-06-26T14:26:54.993Z,35.07
2019-06-26T14:30:55.925Z,35.02
2019-06-26T14:34:56.866Z,35.13
2019-06-26T14:38:57.758Z,35.15
2019-06-26T14:42:58.699Z,34.67
2019-06-26T14:46:59.622Z,34.46
2019-06-26T14:51:00.563Z,34.34
2019-06-26T14:55:01.589Z,34.41
2019-06-26T14:59:02.778Z,34.36
2019-06-26T15:03:03.727Z,34.49
2019-06-26T15:07:04.777Z,34.71
2019-06-26T15:11:05.730Z,34.39
2019-06-26T15:15:07.850Z,34.39
2019-06-26T15:19:08.903Z,34.43
2019-06-26T15:23:09.940Z,34.47
2019-06-26T15:27:10.873Z,34.41
2019-06-26T15:31:11.901Z,34.22
2019-06-26T15:35:13.764Z,34.08
2019-06-26T15:39:14.674Z,34.15
2019-06-26T15:43:15.707Z,34.04
2019-06-26T15:47:16.634Z,33.92
2019-06-26T15:51:17.571Z,33.74
2019-06-26T15:55:18.517Z,33.56
2019-06-26T15:59:19.550Z,33.37
2019-06-26T16:03:20.504Z,33.17
2019-06-26T16:07:21.445Z,32.84
2019-06-26T16:11:22.381Z,32.63
2019-06-26T16:15:23.302Z,32.65
2019-06-26T16:19:25.552Z,32.50
2019-06-26T16:23:26.443Z,32.33
2019-06-26T16:27:27.380Z,32.41
2019-06-26T16:31:28.325Z,32.46
2019-06-26T16:35:29.265Z,32.37
2019-06-26T16:39:30.193Z,32.18
2019-06-26T16:43:31.100Z,31.89
2019-06-26T16:47:32.030Z,31.79
2019-06-26T16:51:32.977Z,31.71
2019-06-26T16:55:33.916Z,31.45
2019-06-26T16:59:34.856Z,31.30
2019-06-26T17:03:35.753Z,31.22
2019-06-26T17:07:36.680Z,30.94
2019-06-26T17:11:37.852Z,30.91
2019-06-26T17:15:38.773Z,30.84
2019-06-26T17:19:39.808Z,30.77
2019-06-26T17:23:40.803Z,30.75
2019-06-26T17:27:41.841Z,30.40
2019-06-26T17:31:42.785Z,30.22
2019-06-26T17:35:43.719Z,30.06
2019-06-26T17:39:44.665Z,29.93
2019-06-26T17:43:45.571Z,29.73
2019-06-26T17:47:46.507Z,29.63
2019-06-26T17:51:47.443Z,29.43
2019-06-26T17:55:48.385Z,29.33
2019-06-26T17:59:49.339Z,29.15
2019-06-26T18:03:50.271Z,29.06
2019-06-26T18:07:51.183Z,28.97
2019-06-26T18:11:52.126Z,28.94
2019-06-26T18:15:53.061Z,28.83
2019-06-26T18:19:54.085Z,28.67
2019-06-26T18:23:55.013Z,28.60
2019-06-26T18:27:56.301Z,28.48
2019-06-26T18:31:57.393Z,28.20
2019-06-26T18:35:58.431Z,27.99
2019-06-26T18:39:59.378Z,27.87
2019-06-26T18:44:00.304Z,27.61
2019-06-26T18:48:01.204Z,27.46
2019-06-26T18:52:02.240Z,27.23
2019-06-26T18:56:03.451Z,27.07
2019-06-26T19:00:05.930Z,26.95
2019-06-26T19:04:06.972Z,26.78
2019-06-26T19:08:07.876Z,26.63
2019-06-26T19:12:08.803Z,26.53
2019-06-26T19:16:09.742Z,26.38
2019-06-26T19:20:11.985Z,26.23
2019-06-26T19:24:12.921Z,26.05
2019-06-26T19:28:13.818Z,25.91
2019-06-26T19:32:14.746Z,25.71
2019-06-26T19:36:15.677Z,25.58
2019-06-26T19:40:16.819Z,25.43
2019-06-26T19:44:17.751Z,25.42
2019-06-26T19:48:18.661Z,25.32
2019-06-26T19:52:19.649Z,25.21
2019-06-26T19:56:20.836Z,24.98
2019-06-26T20:00:21.984Z,24.87
2019-06-26T20:04:22.919Z,24.66
2019-06-26T20:08:23.820Z,24.53
2019-06-26T20:12:24.757Z,24.40
2019-06-26T20:16:25.798Z,24.26
2019-06-26T20:20:26.731Z,24.09
2019-06-26T20:24:43.009Z,23.99
2019-06-26T20:28:30.482Z,23.86
2019-06-26T20:32:31.424Z,23.71
2019-06-26T20:36:32.432Z,23.60
2019-06-26T20:40:33.464Z,23.58
2019-06-26T20:44:34.437Z,23.46
2019-06-26T20:48:35.332Z,23.23
2019-06-26T20:52:36.497Z,22.99
2019-06-26T20:56:37.439Z,22.85
2019-06-26T21:00:38.383Z,22.61
2019-06-26T21:04:39.297Z,22.43
2019-06-26T21:08:40.228Z,21.98
2019-06-26T21:12:41.188Z,21.86
2019-06-26T21:16:42.125Z,21.79
2019-06-26T21:20:43.051Z,21.60
2019-06-26T21:24:44.019Z,21.42
2019-06-26T21:28:44.914Z,21.35
2019-06-26T21:32:45.847Z,21.24
2019-06-26T21:36:46.787Z,21.13
2019-06-26T21:40:47.727Z,20.90
2019-06-26T21:44:48.668Z,20.80
2019-06-26T21:48:49.563Z,20.80
2019-06-26T21:52:50.528Z,20.73
2019-06-26T21:56:51.622Z,20.49
2019-06-26T22:00:52.768Z,20.34
2019-06-26T22:04:53.702Z,20.31
2019-06-26T22:08:54.629Z,20.25
2019-06-26T22:12:55.547Z,20.13
2019-06-26T22:16:56.485Z,20.08
2019-06-26T22:20:57.422Z,19.78
2019-06-26T22:24:58.369Z,19.57
2019-06-26T22:28:59.275Z,19.59
2019-06-26T22:33:00.203Z,19.57
2019-06-26T22:37:01.133Z,19.47
2019-06-26T22:41:02.088Z,19.52
2019-06-26T22:45:04.429Z,19.43
2019-06-26T22:49:05.379Z,19.31
2019-06-26T22:53:06.323Z,19.19
2019-06-26T22:57:07.300Z,19.25
2019-06-26T23:01:08.337Z,19.29
2019-06-26T23:05:09.618Z,19.02
2019-06-26T23:09:10.553Z,18.90
2019-06-26T23:13:11.463Z,18.83
2019-06-26T23:17:12.400Z,18.79
2019-06-26T23:21:13.339Z,18.81
2019-06-26T23:25:14.374Z,18.82
2019-06-26T23:29:15.305Z,18.65
2019-06-26T23:33:16.202Z,18.53
2019-06-26T23:37:17.132Z,18.49
2019-06-26T23:41:18.216Z,18.40
2019-06-26T23:45:19.153Z,18.42
2019-06-26T23:49:20.075Z,18.37
2019-06-26T23:53:21.027Z,18.29
2019-06-26T23:57:21.957Z,18.24
